• Join FlightAware (Why Join?)
  • Login
  • US Flag GB Flag 
03:54 EDT


 

Airport Tracker/Info


-or-


 

Live Flight TrackerFlight Track Log ✈ AWE2690 ✈ 05-Nov-2013 ✈ KMYR - KCLT

Flight Track Log - Related Links

Times and Time Zones

All times are in EST time to prevent confusion due to time zone crossing. See the AWE2690 flight status page for this flight to view local times or setup timezone preferences in your user account.

Time Position Orientation Groundspeed Altitude Reporting Facility
EST Latitude Longitude Course Direction KTS MPH feet Rate Location/Type
11:57 33.8050 -79.0461 308° West 293 337 6,900  Level Jacksonville Center
11:58 34.0974 -79.4669 309° West  Level Estimated
11:58 33.8553 -79.1239 308° West 298 343 10,200  Level Jacksonville Center
11:59 34.1959 -79.6083 310° West  Level FlightAware Approximate
11:59 33.9183 -79.2089 312° West 312 359 11,800  Level Jacksonville Center
12:00 34.2951 -79.7367 308° West  Level Estimated
12:00 33.9858 -79.3086 309° West 350 403 13,500  Level Jacksonville Center
12:01 34.3469 -79.8162 308° West  Level FlightAware Approximate
12:01 34.0617 -79.4108 312° West 391 450 15,600  Level Jacksonville Center
12:02 34.1439 -79.5228 312° West 405 466 17,600 1,200 Climbing Jacksonville Center
12:03 34.2219 -79.6356 310° West 417 480 18,000 180 Climbing Jacksonville Center
12:04 34.2978 -79.7456 310° West 424 488 18,000 -360 Level Jacksonville Center
12:05 34.3736 -79.8536 310° West 424 488 17,300 -1,140 Descending Jacksonville Center
12:06 34.4694 -79.9383 324° Northwest 418 481 15,800 -1,440 Descending Jacksonville Center
12:07 34.5483 -80.0064 325° Northwest 413 475 14,500 -1,560 Descending Jacksonville Center
12:08 34.6447 -80.1506 309° West 402 463 12,300 -1,560 Descending Atlanta Center
12:09 34.6819 -80.2750 290° West 391 450 11,000 -720 Descending Atlanta Center
12:10 34.7311 -80.3792 300° West 305 351 10,900 -1,020 Descending Atlanta Center
12:11 34.7547 -80.4767 286° West 287 330 9,000 -1,860 Descending Atlanta Center
12:12 34.7658 -80.5697 278° West 284 327 7,200 -1,500 Descending Atlanta Center
12:13 34.7642 -80.6633 269° West 274 315 6,000 -1,140 Descending Atlanta Center
12:14 34.7664 -80.7467 272° West 233 268 5,000 -900 Descending Atlanta Center
12:15 34.7622 -80.8203 266° West 186 214 4,200 -540 Descending Atlanta Center
12:16 34.7450 -80.8789 250° West 181 208 4,000 -120 Descending Atlanta Center
12:17 34.7936 -80.9025 338° Northwest 194 223 4,000  Level Atlanta Center
12:18 34.8458 -80.9081 355° North 185 213 4,000  Level Atlanta Center
12:19 34.8981 -80.9136 355° North 189 217 4,000  Level Atlanta Center
12:20 34.9503 -80.9167 357° North 190 219 4,000  Level Atlanta Center
12:22 35.0111 -80.9247 354° North 190 219 4,000 -240 Level Atlanta Center
12:23 35.0633 -80.9253 360° North 183 211 3,500 -720 Descending Atlanta Center
12:24 35.1114 -80.9286 357° North 173 199 2,600 -840 Descending Atlanta Center
12:25 35.1531 -80.9319 356° North 145 167 1,800 -840 Descending Atlanta Center
12:26 35.1928 -80.9356 356° North 127 146 1,000 -840 Descending Atlanta Center